sensor_id;sensor_type;location;lat;lon;timestamp;temperature;humidity
24164;DHT22;12319;49.204;8.116;2024-03-22T00:02:21;12.50;92.30
24164;DHT22;12319;49.204;8.116;2024-03-22T00:04:47;12.40;92.40
24164;DHT22;12319;49.204;8.116;2024-03-22T00:07:12;12.40;92.50
24164;DHT22;12319;49.204;8.116;2024-03-22T00:09:38;12.40;92.70
24164;DHT22;12319;49.204;8.116;2024-03-22T00:12:03;12.40;92.80
24164;DHT22;12319;49.204;8.116;2024-03-22T00:14:29;12.30;92.70
24164;DHT22;12319;49.204;8.116;2024-03-22T00:16:55;12.30;92.70
24164;DHT22;12319;49.204;8.116;2024-03-22T00:19:20;12.30;92.90
24164;DHT22;12319;49.204;8.116;2024-03-22T00:21:46;12.30;93.00
24164;DHT22;12319;49.204;8.116;2024-03-22T00:24:11;12.20;93.10
24164;DHT22;12319;49.204;8.116;2024-03-22T00:26:37;12.20;93.20
24164;DHT22;12319;49.204;8.116;2024-03-22T00:29:02;12.10;93.40
24164;DHT22;12319;49.204;8.116;2024-03-22T00:31:28;12.10;93.60
24164;DHT22;12319;49.204;8.116;2024-03-22T00:33:54;12.00;93.60
24164;DHT22;12319;49.204;8.116;2024-03-22T00:36:19;12.00;93.70
24164;DHT22;12319;49.204;8.116;2024-03-22T00:38:45;12.00;93.70
24164;DHT22;12319;49.204;8.116;2024-03-22T00:41:11;12.00;93.80
24164;DHT22;12319;49.204;8.116;2024-03-22T00:43:36;11.90;94.00
24164;DHT22;12319;49.204;8.116;2024-03-22T00:46:02;11.90;94.20
24164;DHT22;12319;49.204;8.116;2024-03-22T00:48:28;11.80;94.50
24164;DHT22;12319;49.204;8.116;2024-03-22T00:50:53;11.80;94.60
24164;DHT22;12319;49.204;8.116;2024-03-22T00:53:19;11.80;94.90
24164;DHT22;12319;49.204;8.116;2024-03-22T00:55:44;11.70;95.20
24164;DHT22;12319;49.204;8.116;2024-03-22T00:58:11;11.60;95.30
24164;DHT22;12319;49.204;8.116;2024-03-22T01:00:37;11.60;95.50
24164;DHT22;12319;49.204;8.116;2024-03-22T01:03:03;11.60;95.80
24164;DHT22;12319;49.204;8.116;2024-03-22T01:05:29;11.50;95.80
24164;DHT22;12319;49.204;8.116;2024-03-22T01:07:54;11.50;96.10
24164;DHT22;12319;49.204;8.116;2024-03-22T01:10:19;11.50;96.10
24164;DHT22;12319;49.204;8.116;2024-03-22T01:12:45;11.50;96.40
24164;DHT22;12319;49.204;8.116;2024-03-22T01:15:10;11.40;96.50
24164;DHT22;12319;49.204;8.116;2024-03-22T01:17:36;11.40;96.60
24164;DHT22;12319;49.204;8.116;2024-03-22T01:20:02;11.40;96.70
24164;DHT22;12319;49.204;8.116;2024-03-22T01:22:28;11.40;96.90
24164;DHT22;12319;49.204;8.116;2024-03-22T01:24:53;11.40;96.80
24164;DHT22;12319;49.204;8.116;2024-03-22T01:27:19;11.40;96.90
24164;DHT22;12319;49.204;8.116;2024-03-22T01:29:46;11.40;96.80
24164;DHT22;12319;49.204;8.116;2024-03-22T01:32:12;11.40;97.00
24164;DHT22;12319;49.204;8.116;2024-03-22T01:34:38;11.40;97.00
24164;DHT22;12319;49.204;8.116;2024-03-22T01:37:03;11.40;97.30
24164;DHT22;12319;49.204;8.116;2024-03-22T01:39:29;11.40;97.40
24164;DHT22;12319;49.204;8.116;2024-03-22T01:41:55;11.40;97.40
24164;DHT22;12319;49.204;8.116;2024-03-22T01:44:27;11.40;97.40
24164;DHT22;12319;49.204;8.116;2024-03-22T01:46:53;11.40;97.80
24164;DHT22;12319;49.204;8.116;2024-03-22T01:49:19;11.40;98.00
24164;DHT22;12319;49.204;8.116;2024-03-22T01:51:44;11.40;97.80
24164;DHT22;12319;49.204;8.116;2024-03-22T01:54:10;11.30;97.80
24164;DHT22;12319;49.204;8.116;2024-03-22T01:56:37;11.30;97.80
24164;DHT22;12319;49.204;8.116;2024-03-22T01:59:03;11.30;98.00
24164;DHT22;12319;49.204;8.116;2024-03-22T02:01:29;11.30;98.00
24164;DHT22;12319;49.204;8.116;2024-03-22T02:03:55;11.20;97.90
24164;DHT22;12319;49.204;8.116;2024-03-22T02:06:20;11.20;98.10
24164;DHT22;12319;49.204;8.116;2024-03-22T02:08:46;11.20;98.20
24164;DHT22;12319;49.204;8.116;2024-03-22T02:11:11;11.10;98.70
24164;DHT22;12319;49.204;8.116;2024-03-22T02:13:37;11.10;98.60
24164;DHT22;12319;49.204;8.116;2024-03-22T02:16:03;11.10;98.60
24164;DHT22;12319;49.204;8.116;2024-03-22T02:18:29;11.40;99.00
24164;DHT22;12319;49.204;8.116;2024-03-22T02:20:55;11.10;98.70
24164;DHT22;12319;49.204;8.116;2024-03-22T02:23:35;11.10;98.60
24164;DHT22;12319;49.204;8.116;2024-03-22T02:26:02;11.10;99.00
24164;DHT22;12319;49.204;8.116;2024-03-22T02:28:28;11.10;98.90
24164;DHT22;12319;49.204;8.116;2024-03-22T02:30:53;11.10;99.00
24164;DHT22;12319;49.204;8.116;2024-03-22T02:33:19;11.00;98.90
24164;DHT22;12319;49.204;8.116;2024-03-22T02:35:48;11.00;98.80
24164;DHT22;12319;49.204;8.116;2024-03-22T02:38:13;10.90;99.20
24164;DHT22;12319;49.204;8.116;2024-03-22T02:40:39;10.90;99.20
24164;DHT22;12319;49.204;8.116;2024-03-22T02:43:04;10.90;99.40
24164;DHT22;12319;49.204;8.116;2024-03-22T02:45:31;10.90;99.70
24164;DHT22;12319;49.204;8.116;2024-03-22T02:47:56;10.80;99.50
24164;DHT22;12319;49.204;8.116;2024-03-22T02:50:22;10.80;99.70
24164;DHT22;12319;49.204;8.116;2024-03-22T02:52:49;10.70;99.80
24164;DHT22;12319;49.204;8.116;2024-03-22T02:55:14;10.70;99.90
24164;DHT22;12319;49.204;8.116;2024-03-22T02:57:40;10.70;99.90
24164;DHT22;12319;49.204;8.116;2024-03-22T03:00:06;10.70;99.90
24164;DHT22;12319;49.204;8.116;2024-03-22T03:02:31;10.70;99.90
24164;DHT22;12319;49.204;8.116;2024-03-22T03:04:57;10.70;99.90
24164;DHT22;12319;49.204;8.116;2024-03-22T03:07:24;10.70;99.90
24164;DHT22;12319;49.204;8.116;2024-03-22T03:09:49;10.70;99.90
24164;DHT22;12319;49.204;8.116;2024-03-22T03:12:15;10.80;99.90
24164;DHT22;12319;49.204;8.116;2024-03-22T03:14:40;10.80;99.90
24164;DHT22;12319;49.204;8.116;2024-03-22T03:17:06;10.80;99.90
24164;DHT22;12319;49.204;8.116;2024-03-22T03:19:31;10.80;99.90
24164;DHT22;12319;49.204;8.116;2024-03-22T03:21:57;10.90;99.90
24164;DHT22;12319;49.204;8.116;2024-03-22T03:24:22;10.90;99.90
24164;DHT22;12319;49.204;8.116;2024-03-22T03:26:48;10.90;99.90
24164;DHT22;12319;49.204;8.116;2024-03-22T03:29:13;10.90;99.90
24164;DHT22;12319;49.204;8.116;2024-03-22T03:31:39;10.90;99.90
24164;DHT22;12319;49.204;8.116;2024-03-22T03:34:04;11.00;99.90
24164;DHT22;12319;49.204;8.116;2024-03-22T03:36:30;11.00;99.90
24164;DHT22;12319;49.204;8.116;2024-03-22T03:38:55;11.00;99.90
24164;DHT22;12319;49.204;8.116;2024-03-22T03:41:21;11.40;99.90
24164;DHT22;12319;49.204;8.116;2024-03-22T03:43:46;11.00;99.90
24164;DHT22;12319;49.204;8.116;2024-03-22T03:46:12;11.00;99.90
24164;DHT22;12319;49.204;8.116;2024-03-22T03:48:37;11.00;99.90
24164;DHT22;12319;49.204;8.116;2024-03-22T03:51:03;11.00;99.90
24164;DHT22;12319;49.204;8.116;2024-03-22T03:53:31;11.00;99.90
24164;DHT22;12319;49.204;8.116;2024-03-22T03:55:57;11.00;99.90
24164;DHT22;12319;49.204;8.116;2024-03-22T03:58:23;11.00;99.90
24164;DHT22;12319;49.204;8.116;2024-03-22T04:00:48;10.90;99.90
24164;DHT22;12319;49.204;8.116;2024-03-22T04:03:14;10.90;99.90
24164;DHT22;12319;49.204;8.116;2024-03-22T04:05:39;10.90;99.90
24164;DHT22;12319;49.204;8.116;2024-03-22T04:08:05;10.80;99.90
24164;DHT22;12319;49.204;8.116;2024-03-22T04:10:31;10.80;99.90
24164;DHT22;12319;49.204;8.116;2024-03-22T04:12:57;10.80;99.90
24164;DHT22;12319;49.204;8.116;2024-03-22T04:15:22;10.70;99.90
24164;DHT22;12319;49.204;8.116;2024-03-22T04:17:48;10.70;99.90
24164;DHT22;12319;49.204;8.116;2024-03-22T04:20:13;10.70;99.90
24164;DHT22;12319;49.204;8.116;2024-03-22T04:22:39;10.70;99.90
24164;DHT22;12319;49.204;8.116;2024-03-22T04:25:05;10.70;99.90
24164;DHT22;12319;49.204;8.116;2024-03-22T04:27:30;10.70;99.90
24164;DHT22;12319;49.204;8.116;2024-03-22T04:29:56;10.70;99.90
24164;DHT22;12319;49.204;8.116;2024-03-22T04:32:21;10.70;99.90
24164;DHT22;12319;49.204;8.116;2024-03-22T04:34:47;10.60;99.90
24164;DHT22;12319;49.204;8.116;2024-03-22T04:37:13;10.60;99.90
24164;DHT22;12319;49.204;8.116;2024-03-22T04:39:40;10.60;99.90
24164;DHT22;12319;49.204;8.116;2024-03-22T04:42:05;10.60;99.90
24164;DHT22;12319;49.204;8.116;2024-03-22T04:44:31;10.60;99.90
24164;DHT22;12319;49.204;8.116;2024-03-22T04:46:56;10.50;99.90
24164;DHT22;12319;49.204;8.116;2024-03-22T04:49:22;10.50;99.90
24164;DHT22;12319;49.204;8.116;2024-03-22T04:51:48;10.60;99.90
24164;DHT22;12319;49.204;8.116;2024-03-22T04:54:13;10.50;99.90
24164;DHT22;12319;49.204;8.116;2024-03-22T04:56:39;10.50;99.90
24164;DHT22;12319;49.204;8.116;2024-03-22T04:59:05;10.50;99.90
24164;DHT22;12319;49.204;8.116;2024-03-22T05:01:30;10.50;99.90
24164;DHT22;12319;49.204;8.116;2024-03-22T05:03:56;10.50;99.90
24164;DHT22;12319;49.204;8.116;2024-03-22T05:06:21;10.50;99.90
24164;DHT22;12319;49.204;8.116;2024-03-22T05:08:47;10.40;99.90
24164;DHT22;12319;49.204;8.116;2024-03-22T05:11:12;10.40;99.90
24164;DHT22;12319;49.204;8.116;2024-03-22T05:13:38;10.50;99.90
24164;DHT22;12319;49.204;8.116;2024-03-22T05:16:06;10.50;99.90
24164;DHT22;12319;49.204;8.116;2024-03-22T05:18:31;10.50;99.90
24164;DHT22;12319;49.204;8.116;2024-03-22T05:20:57;10.50;99.90
24164;DHT22;12319;49.204;8.116;2024-03-22T05:23:22;10.40;99.90
24164;DHT22;12319;49.204;8.116;2024-03-22T05:25:48;10.40;99.90
24164;DHT22;12319;49.204;8.116;2024-03-22T05:28:13;10.40;99.90
24164;DHT22;12319;49.204;8.116;2024-03-22T05:30:39;10.40;99.90
24164;DHT22;12319;49.204;8.116;2024-03-22T05:33:04;10.30;99.90
24164;DHT22;12319;49.204;8.116;2024-03-22T05:35:30;10.30;99.90
24164;DHT22;12319;49.204;8.116;2024-03-22T05:37:56;10.30;99.90
24164;DHT22;12319;49.204;8.116;2024-03-22T05:40:21;10.30;99.90
24164;DHT22;12319;49.204;8.116;2024-03-22T05:42:47;10.30;99.90
24164;DHT22;12319;49.204;8.116;2024-03-22T05:45:13;10.30;99.90
24164;DHT22;12319;49.204;8.116;2024-03-22T05:47:38;10.30;99.90
24164;DHT22;12319;49.204;8.116;2024-03-22T05:50:04;10.30;99.90
24164;DHT22;12319;49.204;8.116;2024-03-22T05:52:33;10.40;99.90
24164;DHT22;12319;49.204;8.116;2024-03-22T05:54:58;10.40;99.90
24164;DHT22;12319;49.204;8.116;2024-03-22T05:57:24;10.40;99.90
24164;DHT22;12319;49.204;8.116;2024-03-22T05:59:50;10.40;99.90
24164;DHT22;12319;49.204;8.116;2024-03-22T06:02:15;10.40;99.90
24164;DHT22;12319;49.204;8.116;2024-03-22T06:04:42;10.50;99.90
24164;DHT22;12319;49.204;8.116;2024-03-22T06:07:07;10.50;99.90
24164;DHT22;12319;49.204;8.116;2024-03-22T06:09:33;10.50;99.90
24164;DHT22;12319;49.204;8.116;2024-03-22T06:12:17;10.50;99.90
24164;DHT22;12319;49.204;8.116;2024-03-22T06:14:43;10.60;99.90
24164;DHT22;12319;49.204;8.116;2024-03-22T06:17:09;10.70;99.90
24164;DHT22;12319;49.204;8.116;2024-03-22T06:19:36;10.70;99.90
24164;DHT22;12319;49.204;8.116;2024-03-22T06:22:02;10.80;99.90
24164;DHT22;12319;49.204;8.116;2024-03-22T06:24:28;10.90;99.90
24164;DHT22;12319;49.204;8.116;2024-03-22T06:26:53;11.10;99.90
24164;DHT22;12319;49.204;8.116;2024-03-22T06:29:19;11.30;99.90
24164;DHT22;12319;49.204;8.116;2024-03-22T06:31:44;11.40;99.90
24164;DHT22;12319;49.204;8.116;2024-03-22T06:34:10;11.70;99.90
24164;DHT22;12319;49.204;8.116;2024-03-22T06:36:35;11.80;99.90
24164;DHT22;12319;49.204;8.116;2024-03-22T06:39:01;12.00;99.90
24164;DHT22;12319;49.204;8.116;2024-03-22T06:41:29;12.10;99.90
24164;DHT22;12319;49.204;8.116;2024-03-22T06:43:55;12.30;99.90
24164;DHT22;12319;49.204;8.116;2024-03-22T06:46:20;12.40;99.90
24164;DHT22;12319;49.204;8.116;2024-03-22T06:48:46;12.40;99.90
24164;DHT22;12319;49.204;8.116;2024-03-22T06:51:12;12.70;99.70
24164;DHT22;12319;49.204;8.116;2024-03-22T06:53:37;12.60;99.80
24164;DHT22;12319;49.204;8.116;2024-03-22T06:56:03;12.80;99.70
24164;DHT22;12319;49.204;8.116;2024-03-22T06:58:29;12.90;99.50
24164;DHT22;12319;49.204;8.116;2024-03-22T07:00:55;13.10;99.30
24164;DHT22;12319;49.204;8.116;2024-03-22T07:03:20;13.30;99.00
24164;DHT22;12319;49.204;8.116;2024-03-22T07:05:47;13.50;98.30
24164;DHT22;12319;49.204;8.116;2024-03-22T07:08:13;13.60;97.90
24164;DHT22;12319;49.204;8.116;2024-03-22T07:10:39;13.70;97.80
24164;DHT22;12319;49.204;8.116;2024-03-22T07:13:05;13.90;97.20
24164;DHT22;12319;49.204;8.116;2024-03-22T07:15:31;14.20;97.20
24164;DHT22;12319;49.204;8.116;2024-03-22T07:17:57;14.40;96.70
24164;DHT22;12319;49.204;8.116;2024-03-22T07:20:23;14.70;96.50
24164;DHT22;12319;49.204;8.116;2024-03-22T07:22:48;15.00;95.80
24164;DHT22;12319;49.204;8.116;2024-03-22T07:25:14;15.30;95.50
24164;DHT22;12319;49.204;8.116;2024-03-22T07:27:39;15.60;94.90
24164;DHT22;12319;49.204;8.116;2024-03-22T07:30:05;16.00;94.30
24164;DHT22;12319;49.204;8.116;2024-03-22T07:32:31;16.50;93.80
24164;DHT22;12319;49.204;8.116;2024-03-22T07:34:57;17.00;92.40
24164;DHT22;12319;49.204;8.116;2024-03-22T07:37:23;17.40;91.40
24164;DHT22;12319;49.204;8.116;2024-03-22T07:39:48;17.80;90.10
24164;DHT22;12319;49.204;8.116;2024-03-22T07:42:14;18.10;88.00
24164;DHT22;12319;49.204;8.116;2024-03-22T07:44:40;18.30;85.70
24164;DHT22;12319;49.204;8.116;2024-03-22T07:47:05;18.60;84.90
24164;DHT22;12319;49.204;8.116;2024-03-22T07:49:31;18.90;81.60
24164;DHT22;12319;49.204;8.116;2024-03-22T07:51:58;19.10;80.20
24164;DHT22;12319;49.204;8.116;2024-03-22T07:54:23;19.20;77.80
24164;DHT22;12319;49.204;8.116;2024-03-22T07:56:49;19.50;78.30
24164;DHT22;12319;49.204;8.116;2024-03-22T07:59:14;19.80;77.20
24164;DHT22;12319;49.204;8.116;2024-03-22T08:01:40;19.90;74.20
24164;DHT22;12319;49.204;8.116;2024-03-22T08:04:05;19.90;74.00
24164;DHT22;12319;49.204;8.116;2024-03-22T08:06:31;19.80;73.90
24164;DHT22;12319;49.204;8.116;2024-03-22T08:08:56;19.70;73.80
24164;DHT22;12319;49.204;8.116;2024-03-22T08:11:22;19.60;73.10
24164;DHT22;12319;49.204;8.116;2024-03-22T08:13:47;19.50;72.90
24164;DHT22;12319;49.204;8.116;2024-03-22T08:16:13;19.40;72.90
24164;DHT22;12319;49.204;8.116;2024-03-22T08:18:39;19.10;73.00
24164;DHT22;12319;49.204;8.116;2024-03-22T08:21:04;19.30;72.90
24164;DHT22;12319;49.204;8.116;2024-03-22T08:23:30;18.80;73.10
24164;DHT22;12319;49.204;8.116;2024-03-22T08:25:55;18.60;73.60
24164;DHT22;12319;49.204;8.116;2024-03-22T08:28:22;18.50;73.70
24164;DHT22;12319;49.204;8.116;2024-03-22T08:30:48;18.30;73.30
24164;DHT22;12319;49.204;8.116;2024-03-22T08:33:13;18.00;73.80
24164;DHT22;12319;49.204;8.116;2024-03-22T08:35:39;18.00;74.30
24164;DHT22;12319;49.204;8.116;2024-03-22T08:38:05;17.80;74.60
24164;DHT22;12319;49.204;8.116;2024-03-22T08:40:39;17.80;74.30
24164;DHT22;12319;49.204;8.116;2024-03-22T08:43:05;17.70;74.50
24164;DHT22;12319;49.204;8.116;2024-03-22T08:45:32;17.70;74.80
24164;DHT22;12319;49.204;8.116;2024-03-22T08:47:58;17.60;74.90
24164;DHT22;12319;49.204;8.116;2024-03-22T08:50:23;17.70;74.50
24164;DHT22;12319;49.204;8.116;2024-03-22T08:52:50;17.70;73.90
24164;DHT22;12319;49.204;8.116;2024-03-22T08:55:15;17.70;73.60
24164;DHT22;12319;49.204;8.116;2024-03-22T08:57:41;17.70;72.70
24164;DHT22;12319;49.204;8.116;2024-03-22T09:00:07;17.60;72.70
24164;DHT22;12319;49.204;8.116;2024-03-22T09:02:33;18.10;72.10
24164;DHT22;12319;49.204;8.116;2024-03-22T09:04:59;17.60;71.20
24164;DHT22;12319;49.204;8.116;2024-03-22T09:07:25;17.50;71.90
24164;DHT22;12319;49.204;8.116;2024-03-22T09:09:50;17.50;71.80
24164;DHT22;12319;49.204;8.116;2024-03-22T09:12:16;18.00;72.50
24164;DHT22;12319;49.204;8.116;2024-03-22T09:14:41;17.50;72.50
24164;DHT22;12319;49.204;8.116;2024-03-22T09:17:07;17.40;71.50
24164;DHT22;12319;49.204;8.116;2024-03-22T09:19:33;17.50;72.50
24164;DHT22;12319;49.204;8.116;2024-03-22T09:21:58;17.50;72.60
24164;DHT22;12319;49.204;8.116;2024-03-22T09:24:24;17.60;72.60
24164;DHT22;12319;49.204;8.116;2024-03-22T09:26:50;17.60;72.00
24164;DHT22;12319;49.204;8.116;2024-03-22T09:29:15;17.70;71.60
24164;DHT22;12319;49.204;8.116;2024-03-22T09:31:41;17.70;72.10
24164;DHT22;12319;49.204;8.116;2024-03-22T09:34:06;17.70;71.70
24164;DHT22;12319;49.204;8.116;2024-03-22T09:36:32;17.80;71.60
24164;DHT22;12319;49.204;8.116;2024-03-22T09:39:01;17.90;71.30
24164;DHT22;12319;49.204;8.116;2024-03-22T09:41:27;18.00;71.80
24164;DHT22;12319;49.204;8.116;2024-03-22T09:43:55;18.10;71.70
24164;DHT22;12319;49.204;8.116;2024-03-22T09:46:22;18.20;71.70
24164;DHT22;12319;49.204;8.116;2024-03-22T09:48:49;18.40;71.50
24164;DHT22;12319;49.204;8.116;2024-03-22T09:51:16;18.50;71.60
24164;DHT22;12319;49.204;8.116;2024-03-22T09:53:44;18.60;71.00
24164;DHT22;12319;49.204;8.116;2024-03-22T09:56:13;18.60;70.00
24164;DHT22;12319;49.204;8.116;2024-03-22T09:58:39;18.60;69.70
24164;DHT22;12319;49.204;8.116;2024-03-22T10:01:05;18.70;69.30
24164;DHT22;12319;49.204;8.116;2024-03-22T10:03:30;18.60;69.80
24164;DHT22;12319;49.204;8.116;2024-03-22T10:05:56;18.70;70.10
24164;DHT22;12319;49.204;8.116;2024-03-22T10:08:22;18.70;70.50
24164;DHT22;12319;49.204;8.116;2024-03-22T10:10:47;18.90;70.30
24164;DHT22;12319;49.204;8.116;2024-03-22T10:13:13;18.80;69.90
24164;DHT22;12319;49.204;8.116;2024-03-22T10:15:38;19.00;70.10
24164;DHT22;12319;49.204;8.116;2024-03-22T10:18:04;18.90;66.60
24164;DHT22;12319;49.204;8.116;2024-03-22T10:20:29;18.90;66.80
24164;DHT22;12319;49.204;8.116;2024-03-22T10:22:56;18.90;68.40
24164;DHT22;12319;49.204;8.116;2024-03-22T10:25:24;18.90;67.90
24164;DHT22;12319;49.204;8.116;2024-03-22T10:27:49;19.00;68.00
24164;DHT22;12319;49.204;8.116;2024-03-22T10:30:16;19.00;68.00
24164;DHT22;12319;49.204;8.116;2024-03-22T10:32:43;19.00;67.90
24164;DHT22;12319;49.204;8.116;2024-03-22T10:35:12;19.10;68.40
24164;DHT22;12319;49.204;8.116;2024-03-22T10:37:38;19.10;68.00
24164;DHT22;12319;49.204;8.116;2024-03-22T10:40:05;19.10;67.90
24164;DHT22;12319;49.204;8.116;2024-03-22T10:42:34;19.10;67.40
24164;DHT22;12319;49.204;8.116;2024-03-22T10:45:00;19.10;67.00
24164;DHT22;12319;49.204;8.116;2024-03-22T10:47:30;19.10;67.00
24164;DHT22;12319;49.204;8.116;2024-03-22T10:50:07;19.00;66.30
24164;DHT22;12319;49.204;8.116;2024-03-22T10:53:01;19.00;65.50
24164;DHT22;12319;49.204;8.116;2024-03-22T10:55:43;18.90;65.20
24164;DHT22;12319;49.204;8.116;2024-03-22T10:58:17;18.90;65.20
24164;DHT22;12319;49.204;8.116;2024-03-22T11:00:43;18.90;64.20
24164;DHT22;12319;49.204;8.116;2024-03-22T11:03:10;18.90;63.70
24164;DHT22;12319;49.204;8.116;2024-03-22T11:05:45;18.90;64.30
24164;DHT22;12319;49.204;8.116;2024-03-22T11:08:11;18.90;64.00
24164;DHT22;12319;49.204;8.116;2024-03-22T11:10:37;18.90;63.70
24164;DHT22;12319;49.204;8.116;2024-03-22T11:13:03;18.90;63.90
24164;DHT22;12319;49.204;8.116;2024-03-22T11:15:29;18.90;63.60
24164;DHT22;12319;49.204;8.116;2024-03-22T11:17:56;18.80;63.50
24164;DHT22;12319;49.204;8.116;2024-03-22T11:20:21;18.80;63.80
24164;DHT22;12319;49.204;8.116;2024-03-22T11:22:47;18.80;63.80
24164;DHT22;12319;49.204;8.116;2024-03-22T11:25:13;18.90;64.00
24164;DHT22;12319;49.204;8.116;2024-03-22T11:27:38;18.90;63.90
24164;DHT22;12319;49.204;8.116;2024-03-22T11:30:04;19.00;63.80
24164;DHT22;12319;49.204;8.116;2024-03-22T11:32:30;19.10;64.10
24164;DHT22;12319;49.204;8.116;2024-03-22T11:34:56;19.20;64.40
24164;DHT22;12319;49.204;8.116;2024-03-22T11:37:22;19.40;64.20
24164;DHT22;12319;49.204;8.116;2024-03-22T11:39:48;19.50;63.90
24164;DHT22;12319;49.204;8.116;2024-03-22T11:42:14;19.70;63.60
24164;DHT22;12319;49.204;8.116;2024-03-22T11:44:40;19.90;63.80
24164;DHT22;12319;49.204;8.116;2024-03-22T11:47:06;20.30;63.60
24164;DHT22;12319;49.204;8.116;2024-03-22T11:49:32;20.30;63.30
24164;DHT22;12319;49.204;8.116;2024-03-22T11:51:58;20.40;63.00
24164;DHT22;12319;49.204;8.116;2024-03-22T11:54:24;20.50;62.80
24164;DHT22;12319;49.204;8.116;2024-03-22T11:56:49;20.50;62.50
24164;DHT22;12319;49.204;8.116;2024-03-22T11:59:18;20.60;60.70
24164;DHT22;12319;49.204;8.116;2024-03-22T12:01:44;20.80;61.90
24164;DHT22;12319;49.204;8.116;2024-03-22T12:04:09;21.20;60.70
24164;DHT22;12319;49.204;8.116;2024-03-22T12:06:42;21.20;58.20
24164;DHT22;12319;49.204;8.116;2024-03-22T12:09:07;21.30;60.40
24164;DHT22;12319;49.204;8.116;2024-03-22T12:11:33;21.50;61.20
24164;DHT22;12319;49.204;8.116;2024-03-22T12:13:59;21.60;60.50
24164;DHT22;12319;49.204;8.116;2024-03-22T12:16:24;21.70;60.40
24164;DHT22;12319;49.204;8.116;2024-03-22T12:18:50;21.70;59.90
24164;DHT22;12319;49.204;8.116;2024-03-22T12:21:15;21.80;60.10
24164;DHT22;12319;49.204;8.116;2024-03-22T12:23:41;21.80;61.10
24164;DHT22;12319;49.204;8.116;2024-03-22T12:26:06;21.90;61.30
24164;DHT22;12319;49.204;8.116;2024-03-22T12:28:32;22.10;61.10
24164;DHT22;12319;49.204;8.116;2024-03-22T12:30:58;22.20;60.50
24164;DHT22;12319;49.204;8.116;2024-03-22T12:33:23;22.20;59.90
24164;DHT22;12319;49.204;8.116;2024-03-22T12:35:49;22.20;59.60
24164;DHT22;12319;49.204;8.116;2024-03-22T12:38:14;22.20;59.40
24164;DHT22;12319;49.204;8.116;2024-03-22T12:40:40;22.20;59.50
24164;DHT22;12319;49.204;8.116;2024-03-22T12:43:09;22.00;59.70
24164;DHT22;12319;49.204;8.116;2024-03-22T12:45:34;22.00;60.10
24164;DHT22;12319;49.204;8.116;2024-03-22T12:48:00;22.00;59.40
24164;DHT22;12319;49.204;8.116;2024-03-22T12:50:26;22.00;59.80
24164;DHT22;12319;49.204;8.116;2024-03-22T12:52:52;22.00;59.10
24164;DHT22;12319;49.204;8.116;2024-03-22T12:55:17;22.10;59.10
24164;DHT22;12319;49.204;8.116;2024-03-22T12:57:43;22.20;59.40
24164;DHT22;12319;49.204;8.116;2024-03-22T13:00:09;22.20;57.90
24164;DHT22;12319;49.204;8.116;2024-03-22T13:02:40;22.10;57.50
24164;DHT22;12319;49.204;8.116;2024-03-22T13:05:07;21.90;58.80
24164;DHT22;12319;49.204;8.116;2024-03-22T13:07:33;22.00;58.80
24164;DHT22;12319;49.204;8.116;2024-03-22T13:09:59;21.90;59.50
24164;DHT22;12319;49.204;8.116;2024-03-22T13:12:28;21.80;59.50
24164;DHT22;12319;49.204;8.116;2024-03-22T13:14:56;21.80;60.00
24164;DHT22;12319;49.204;8.116;2024-03-22T13:17:22;21.90;59.10
24164;DHT22;12319;49.204;8.116;2024-03-22T13:19:48;21.90;59.40
24164;DHT22;12319;49.204;8.116;2024-03-22T13:22:13;22.00;59.20
24164;DHT22;12319;49.204;8.116;2024-03-22T13:24:41;22.00;59.10
24164;DHT22;12319;49.204;8.116;2024-03-22T13:27:06;22.00;58.70
24164;DHT22;12319;49.204;8.116;2024-03-22T13:29:33;22.20;58.20
24164;DHT22;12319;49.204;8.116;2024-03-22T13:31:58;22.50;59.40
24164;DHT22;12319;49.204;8.116;2024-03-22T13:34:24;22.90;58.50
24164;DHT22;12319;49.204;8.116;2024-03-22T13:36:49;23.30;56.50
24164;DHT22;12319;49.204;8.116;2024-03-22T13:39:15;23.60;55.00
24164;DHT22;12319;49.204;8.116;2024-03-22T13:41:41;23.80;56.50
24164;DHT22;12319;49.204;8.116;2024-03-22T13:44:07;24.10;55.60
24164;DHT22;12319;49.204;8.116;2024-03-22T13:46:33;24.40;55.10
24164;DHT22;12319;49.204;8.116;2024-03-22T13:49:02;24.50;56.10
24164;DHT22;12319;49.204;8.116;2024-03-22T13:51:28;24.60;55.20
24164;DHT22;12319;49.204;8.116;2024-03-22T13:53:54;24.50;53.00
24164;DHT22;12319;49.204;8.116;2024-03-22T13:56:20;24.20;53.10
24164;DHT22;12319;49.204;8.116;2024-03-22T13:58:46;24.00;53.50
24164;DHT22;12319;49.204;8.116;2024-03-22T14:01:12;23.80;53.70
24164;DHT22;12319;49.204;8.116;2024-03-22T14:03:37;23.70;54.30
24164;DHT22;12319;49.204;8.116;2024-03-22T14:06:03;23.60;54.30
24164;DHT22;12319;49.204;8.116;2024-03-22T14:08:29;23.60;53.70
24164;DHT22;12319;49.204;8.116;2024-03-22T14:10:54;23.60;52.90
24164;DHT22;12319;49.204;8.116;2024-03-22T14:13:20;23.40;54.10
24164;DHT22;12319;49.204;8.116;2024-03-22T14:15:45;23.30;52.90
24164;DHT22;12319;49.204;8.116;2024-03-22T14:18:11;23.20;52.20
24164;DHT22;12319;49.204;8.116;2024-03-22T14:20:36;23.00;54.50
24164;DHT22;12319;49.204;8.116;2024-03-22T14:23:02;23.00;55.30
24164;DHT22;12319;49.204;8.116;2024-03-22T14:25:29;22.90;54.80
24164;DHT22;12319;49.204;8.116;2024-03-22T14:27:55;22.80;54.70
24164;DHT22;12319;49.204;8.116;2024-03-22T14:30:20;22.60;53.30
24164;DHT22;12319;49.204;8.116;2024-03-22T14:32:46;22.50;53.50
24164;DHT22;12319;49.204;8.116;2024-03-22T14:35:12;22.30;53.00
24164;DHT22;12319;49.204;8.116;2024-03-22T14:37:38;22.20;53.30
24164;DHT22;12319;49.204;8.116;2024-03-22T14:40:04;22.10;53.50
24164;DHT22;12319;49.204;8.116;2024-03-22T14:42:31;22.00;54.00
24164;DHT22;12319;49.204;8.116;2024-03-22T14:44:56;22.00;54.40
24164;DHT22;12319;49.204;8.116;2024-03-22T14:47:22;21.90;54.40
24164;DHT22;12319;49.204;8.116;2024-03-22T14:49:50;21.90;54.10
24164;DHT22;12319;49.204;8.116;2024-03-22T14:52:16;21.90;53.90
24164;DHT22;12319;49.204;8.116;2024-03-22T14:54:42;21.90;54.10
24164;DHT22;12319;49.204;8.116;2024-03-22T14:57:07;22.00;54.10
24164;DHT22;12319;49.204;8.116;2024-03-22T14:59:34;22.00;54.30
24164;DHT22;12319;49.204;8.116;2024-03-22T15:02:00;21.90;54.40
24164;DHT22;12319;49.204;8.116;2024-03-22T15:04:25;21.90;54.30
24164;DHT22;12319;49.204;8.116;2024-03-22T15:06:51;21.70;54.60
24164;DHT22;12319;49.204;8.116;2024-03-22T15:09:17;21.70;54.50
24164;DHT22;12319;49.204;8.116;2024-03-22T15:11:44;21.60;54.50
24164;DHT22;12319;49.204;8.116;2024-03-22T15:14:09;21.60;54.80
24164;DHT22;12319;49.204;8.116;2024-03-22T15:16:35;21.50;54.80
24164;DHT22;12319;49.204;8.116;2024-03-22T15:19:01;21.40;54.40
24164;DHT22;12319;49.204;8.116;2024-03-22T15:21:28;21.30;55.00
24164;DHT22;12319;49.204;8.116;2024-03-22T15:23:53;21.20;55.80